Time;durP1;ratioP1;P1;durP2;ratioP2;P2;SDS_P1;SDS_P2;PMS_P1;PMS_P2;Temp;Humidity;BMP_temperature;BMP_pressure;BME280_temperature;BME280_humidity;BME280_pressure;Samples;Min_cycle;Max_cycle;Signal;HPM_P1;HPM_P2
2023/06/30 00:01:32;;;;;;;13.48;4.40;;;;;;;15.88;96.63;101311.97;5049731;28;20112;-81
2023/06/30 00:03:57;;;;;;;12.95;3.95;;;;;;;15.81;97.38;101310.78;5046791;28;20289;-82
2023/06/30 00:06:23;;;;;;;18.83;4.65;;;;;;;15.72;96.89;101307.00;5043796;28;20237;-82
2023/06/30 00:08:49;;;;;;;10.52;3.20;;;;;;;15.64;97.35;101310.41;5049257;28;20150;-81
2023/06/30 00:11:15;;;;;;;14.20;3.78;;;;;;;15.60;97.64;101308.09;5040685;28;20179;-82
2023/06/30 00:13:40;;;;;;;13.20;4.07;;;;;;;15.50;97.72;101311.59;5050398;28;20024;-82
2023/06/30 00:16:05;;;;;;;13.63;4.15;;;;;;;15.43;98.12;101312.25;5057224;28;20108;-82
2023/06/30 00:18:31;;;;;;;19.65;4.28;;;;;;;15.42;96.74;101314.13;5057500;28;20074;-82
2023/06/30 00:20:57;;;;;;;14.63;4.30;;;;;;;15.36;98.06;101306.53;5067178;28;20056;-81
2023/06/30 00:23:22;;;;;;;11.93;3.78;;;;;;;15.27;98.61;101310.88;5053899;28;20109;-81
2023/06/30 00:25:48;;;;;;;14.23;4.28;;;;;;;15.25;98.88;101309.28;5061233;28;20052;-82
2023/06/30 00:28:13;;;;;;;11.93;3.88;;;;;;;15.17;98.67;101302.69;5050436;28;20063;-82
2023/06/30 00:30:38;;;;;;;14.95;3.53;;;;;;;15.10;99.12;101306.91;5062606;28;20101;-81
2023/06/30 00:33:04;;;;;;;14.77;4.05;;;;;;;15.07;99.08;101303.63;5058035;28;20105;-82
2023/06/30 00:35:30;;;;;;;13.13;3.85;;;;;;;15.00;99.46;101300.56;5059699;28;20384;-81
2023/06/30 00:37:55;;;;;;;12.63;3.92;;;;;;;14.94;99.81;101298.38;5044147;28;20454;-81
2023/06/30 00:40:20;;;;;;;17.70;4.55;;;;;;;14.87;99.24;101294.47;5049477;28;20028;-81
2023/06/30 00:42:46;;;;;;;14.50;4.20;;;;;;;14.82;99.65;101292.16;5053028;28;20075;-81
2023/06/30 00:45:11;;;;;;;15.20;4.22;;;;;;;14.75;99.94;101290.97;5054667;28;20032;-82
2023/06/30 00:47:37;;;;;;;17.25;4.30;;;;;;;14.70;99.87;101293.19;5041951;28;20039;-81
2023/06/30 00:50:03;;;;;;;12.43;3.28;;;;;;;14.61;100.00;101295.69;5065859;28;20052;-81
2023/06/30 00:52:29;;;;;;;12.90;3.45;;;;;;;14.58;100.00;101295.03;5064866;28;20029;-81
2023/06/30 00:54:54;;;;;;;12.70;4.07;;;;;;;14.53;100.00;101295.41;5049564;28;20021;-81
2023/06/30 00:57:19;;;;;;;14.10;4.35;;;;;;;14.51;100.00;101300.09;5061058;28;20064;-81
2023/06/30 00:59:45;;;;;;;15.52;3.95;;;;;;;14.55;100.00;101300.69;5043843;28;20100;-82
2023/06/30 01:02:13;;;;;;;11.70;3.97;;;;;;;14.50;100.00;101298.38;5063685;28;20054;-79
2023/06/30 01:05:05;;;;;;;15.18;4.03;;;;;;;14.50;100.00;101291.13;5063554;28;20032;-79
2023/06/30 01:07:42;;;;;;;13.30;3.85;;;;;;;14.51;100.00;101298.25;5047810;28;20024;-80
2023/06/30 01:10:17;;;;;;;17.48;4.35;;;;;;;14.49;100.00;101296.66;5072955;28;20036;-80
2023/06/30 01:12:43;;;;;;;18.00;5.22;;;;;;;14.49;100.00;101294.81;5059683;28;20029;-80
2023/06/30 01:15:09;;;;;;;14.85;4.63;;;;;;;14.53;100.00;101295.41;5066663;28;20289;-79
2023/06/30 01:17:41;;;;;;;13.02;4.05;;;;;;;14.57;100.00;101290.59;5066426;28;20059;-80
2023/06/30 01:20:10;;;;;;;14.15;4.47;;;;;;;14.56;100.00;101297.88;5064925;28;20021;-80
2023/06/30 01:22:43;;;;;;;15.88;4.22;;;;;;;14.58;100.00;101303.16;5042857;28;20093;-80
2023/06/30 01:25:13;;;;;;;17.23;4.55;;;;;;;14.58;100.00;101297.72;5068765;28;20021;-80
2023/06/30 01:27:40;;;;;;;15.38;4.45;;;;;;;14.57;100.00;101304.13;5063414;28;20028;-80
2023/06/30 01:30:06;;;;;;;16.33;4.40;;;;;;;14.54;100.00;101309.78;5054466;28;20028;-80
2023/06/30 01:32:33;;;;;;;17.75;4.88;;;;;;;14.50;100.00;101304.63;5051667;28;20033;-79
2023/06/30 01:34:58;;;;;;;19.92;4.43;;;;;;;14.50;100.00;101304.63;5061446;28;20078;-80
2023/06/30 01:37:23;;;;;;;12.73;4.45;;;;;;;14.47;100.00;101312.16;5031431;28;20033;-80
2023/06/30 01:39:49;;;;;;;15.48;3.97;;;;;;;14.44;100.00;101304.31;5068175;28;20031;-80
2023/06/30 01:42:14;;;;;;;13.07;3.78;;;;;;;14.43;100.00;101297.16;5070941;28;20093;-79
2023/06/30 01:44:41;;;;;;;16.83;4.90;;;;;;;14.42;100.00;101292.72;5056599;28;20294;-79
2023/06/30 01:47:09;;;;;;;18.70;4.70;;;;;;;14.33;100.00;101289.81;5066028;28;20106;-80
2023/06/30 01:49:35;;;;;;;11.95;3.83;;;;;;;14.30;100.00;101284.63;5065611;28;20083;-80
2023/06/30 01:52:01;;;;;;;13.57;3.83;;;;;;;14.26;100.00;101280.50;5033340;28;20056;-79
2023/06/30 01:54:26;;;;;;;15.50;3.80;;;;;;;14.25;100.00;101283.31;5053339;28;20020;-80
2023/06/30 01:56:51;;;;;;;16.35;3.97;;;;;;;14.20;100.00;101282.81;5047561;28;20508;-79
2023/06/30 01:59:17;;;;;;;14.15;3.88;;;;;;;14.12;100.00;101276.19;5051445;28;20028;-79
2023/06/30 02:01:42;;;;;;;12.05;4.13;;;;;;;14.06;100.00;101283.97;5052622;28;20472;-80
2023/06/30 02:04:11;;;;;;;10.18;3.58;;;;;;;14.02;100.00;101277.09;5068518;28;20039;-80
2023/06/30 02:06:36;;;;;;;11.15;3.80;;;;;;;13.97;100.00;101281.03;5046846;28;20057;-80
2023/06/30 02:09:02;;;;;;;17.08;4.10;;;;;;;13.92;100.00;101274.25;5050148;28;20033;-80
2023/06/30 02:11:27;;;;;;;13.65;4.03;;;;;;;13.86;100.00;101278.31;5056103;28;20051;-80
2023/06/30 02:13:52;;;;;;;13.18;4.30;;;;;;;13.79;100.00;101271.69;5071963;28;20087;-80
2023/06/30 02:16:18;;;;;;;13.73;3.83;;;;;;;13.75;100.00;101275.63;5064542;28;20041;-80
2023/06/30 02:18:43;;;;;;;18.70;4.20;;;;;;;13.71;100.00;101274.16;5042050;28;20115;-80
2023/06/30 02:21:08;;;;;;;9.02;3.40;;;;;;;13.66;100.00;101284.44;5057758;28;20044;-80
2023/06/30 02:23:34;;;;;;;11.13;3.88;;;;;;;13.60;100.00;101281.28;5038008;28;20016;-80
2023/06/30 02:25:59;;;;;;;14.45;4.38;;;;;;;13.55;100.00;101280.75;5058735;28;20020;-80
2023/06/30 02:28:25;;;;;;;13.15;4.18;;;;;;;13.50;100.00;101274.88;5056646;28;20522;-79
2023/06/30 02:30:50;;;;;;;17.77;5.10;;;;;;;13.46;100.00;101286.91;5045258;28;20119;-80
2023/06/30 02:33:16;;;;;;;15.55;4.35;;;;;;;13.38;100.00;101278.53;5049190;28;20029;-80
2023/06/30 02:35:41;;;;;;;14.13;4.13;;;;;;;13.34;100.00;101280.63;5046081;28;20476;-80
2023/06/30 02:38:07;;;;;;;16.80;4.35;;;;;;;13.28;100.00;101295.41;5070651;28;20068;-80
2023/06/30 02:40:32;;;;;;;12.45;3.72;;;;;;;13.24;100.00;101299.34;5070401;28;20024;-79
2023/06/30 02:42:58;;;;;;;21.33;4.43;;;;;;;13.20;100.00;101297.84;5047306;28;20517;-80
2023/06/30 02:45:24;;;;;;;14.00;3.95;;;;;;;13.16;100.00;101306.31;5056978;28;20025;-79
2023/06/30 02:47:49;;;;;;;16.90;5.20;;;;;;;13.10;100.00;101304.94;5066012;28;20035;-80
2023/06/30 02:50:14;;;;;;;15.82;4.60;;;;;;;13.08;100.00;101304.19;5044030;28;20021;-80
2023/06/30 02:52:40;;;;;;;15.63;4.68;;;;;;;13.01;100.00;101311.88;5064134;28;20029;-80
2023/06/30 02:55:05;;;;;;;15.32;4.82;;;;;;;13.01;100.00;101317.28;5075156;28;20104;-80
2023/06/30 02:57:31;;;;;;;19.45;4.93;;;;;;;12.99;100.00;101310.28;5058000;28;20048;-79
2023/06/30 02:59:56;;;;;;;12.40;4.15;;;;;;;12.98;100.00;101309.44;5051716;28;20021;-79
2023/06/30 03:02:22;;;;;;;15.10;4.30;;;;;;;12.92;100.00;101316.16;5048024;28;20106;-79
2023/06/30 03:04:47;;;;;;;15.27;4.63;;;;;;;12.89;100.00;101320.94;5047820;28;20092;-80
2023/06/30 03:07:12;;;;;;;13.25;4.15;;;;;;;12.86;100.00;101318.47;5045840;28;20052;-80
2023/06/30 03:09:38;;;;;;;15.05;4.70;;;;;;;12.77;100.00;101317.31;5052082;28;20043;-79
2023/06/30 03:12:04;;;;;;;19.33;4.85;;;;;;;12.74;100.00;101313.00;5045628;28;20468;-80
2023/06/30 03:14:29;;;;;;;12.00;4.20;;;;;;;12.70;100.00;101316.91;5051183;28;20358;-80
2023/06/30 03:16:54;;;;;;;15.57;4.95;;;;;;;12.67;100.00;101317.16;5050930;28;20142;-80
2023/06/30 03:19:19;;;;;;;16.38;5.60;;;;;;;12.67;100.00;101316.28;5055563;28;20048;-79
2023/06/30 03:21:45;;;;;;;13.48;4.55;;;;;;;12.64;100.00;101311.13;5040259;28;20022;-79
2023/06/30 03:24:10;;;;;;;17.58;5.18;;;;;;;12.60;100.00;101307.78;5051022;28;20041;-79
2023/06/30 03:26:35;;;;;;;16.45;5.20;;;;;;;12.61;100.00;101300.56;5052844;28;20366;-79
2023/06/30 03:29:01;;;;;;;16.63;4.78;;;;;;;12.57;100.00;101299.94;5041569;28;20405;-80
2023/06/30 03:31:27;;;;;;;19.00;5.18;;;;;;;12.53;100.00;101304.72;5044146;28;20098;-80
2023/06/30 03:33:52;;;;;;;19.13;5.25;;;;;;;12.53;100.00;101295.75;5047623;28;20024;-79
2023/06/30 03:36:18;;;;;;;20.20;5.45;;;;;;;12.50;100.00;101296.81;5041626;28;20045;-80
2023/06/30 03:38:43;;;;;;;18.58;5.90;;;;;;;12.50;100.00;101299.50;5046292;28;20025;-79
2023/06/30 03:41:08;;;;;;;19.33;5.43;;;;;;;12.51;100.00;101298.56;5044629;28;20036;-80
2023/06/30 03:43:34;;;;;;;17.63;5.20;;;;;;;12.50;100.00;101296.81;5054081;28;20033;-80
2023/06/30 03:45:59;;;;;;;22.10;4.70;;;;;;;12.51;100.00;101295.00;5055483;28;20025;-79
2023/06/30 03:48:24;;;;;;;15.93;5.20;;;;;;;12.52;100.00;101294.88;5052554;28;20065;-79
2023/06/30 03:50:53;;;;;;;18.40;5.93;;;;;;;12.50;100.00;101290.56;5038034;28;20021;-80
2023/06/30 03:53:20;;;;;;;17.73;5.53;;;;;;;12.49;100.00;101292.44;5047114;28;20033;-80
2023/06/30 03:55:45;;;;;;;17.98;5.82;;;;;;;12.52;100.00;101289.50;5052035;28;20468;-79
2023/06/30 03:58:10;;;;;;;19.23;5.75;;;;;;;12.52;100.00;101284.09;5053660;28;20059;-80
2023/06/30 04:00:36;;;;;;;18.85;5.43;;;;;;;12.57;100.00;101286.44;5045662;28;20021;-80
2023/06/30 04:03:01;;;;;;;14.57;5.95;;;;;;;12.57;100.00;101289.16;5055539;28;20519;-80
2023/06/30 04:05:26;;;;;;;18.35;5.75;;;;;;;12.57;100.00;101284.59;5046147;28;20039;-79
2023/06/30 04:07:52;;;;;;;15.45;4.82;;;;;;;12.55;100.00;101291.97;5066742;28;20055;-80
2023/06/30 04:10:17;;;;;;;17.75;5.75;;;;;;;12.54;100.00;101287.53;5059156;28;20037;-80
2023/06/30 04:12:42;;;;;;;21.35;6.63;;;;;;;12.53;100.00;101293.03;5058587;28;20028;-81
2023/06/30 04:15:10;;;;;;;18.23;6.63;;;;;;;12.53;100.00;101296.63;5052069;28;20029;-79
2023/06/30 04:17:36;;;;;;;19.08;5.93;;;;;;;12.55;100.00;101293.81;5071601;28;20048;-79
2023/06/30 04:20:06;;;;;;;18.95;5.35;;;;;;;12.54;100.00;101298.31;5065073;28;20029;-80
2023/06/30 04:22:31;;;;;;;20.38;5.85;;;;;;;12.57;100.00;101298.09;5033680;28;20026;-80
2023/06/30 04:24:57;;;;;;;20.42;6.00;;;;;;;12.57;100.00;101303.47;5043999;28;20029;-80
2023/06/30 04:27:23;;;;;;;19.35;5.63;;;;;;;12.59;100.00;101298.84;5039197;28;20472;-79
2023/06/30 04:29:48;;;;;;;18.20;5.15;;;;;;;12.59;100.00;101298.84;5050144;28;20380;-80
2023/06/30 04:32:13;;;;;;;20.25;6.03;;;;;;;12.65;100.00;101296.66;5040834;28;20032;-79
2023/06/30 04:34:39;;;;;;;21.33;6.68;;;;;;;12.67;100.00;101292.03;5066138;28;20496;-78
2023/06/30 04:37:04;;;;;;;16.55;6.13;;;;;;;12.68;100.00;101300.00;5034119;28;20046;-66
2023/06/30 04:39:29;;;;;;;21.40;7.38;;;;;;;12.69;100.00;101298.16;5059341;28;20081;-68
2023/06/30 04:41:54;;;;;;;19.52;5.60;;;;;;;12.74;100.00;101288.75;5061216;28;20070;-67
2023/06/30 04:44:20;;;;;;;21.33;6.28;;;;;;;12.77;100.00;101291.19;5061292;28;20075;-66
2023/06/30 04:46:45;;;;;;;16.67;5.18;;;;;;;12.77;100.00;101291.19;5059983;28;20028;-70
2023/06/30 04:49:10;;;;;;;18.23;5.80;;;;;;;12.80;100.00;101298.22;5050602;28;20028;-70
2023/06/30 04:51:36;;;;;;;24.10;5.63;;;;;;;12.83;100.00;101291.72;5058257;28;20077;-68
2023/06/30 04:54:01;;;;;;;21.13;5.50;;;;;;;12.86;100.00;101294.19;5058153;28;20020;-67
2023/06/30 04:56:27;;;;;;;20.08;5.70;;;;;;;12.89;100.00;101296.66;5070478;28;20506;-70
2023/06/30 04:58:52;;;;;;;17.08;5.97;;;;;;;12.89;100.00;101294.81;5056006;28;20473;-67
2023/06/30 05:01:17;;;;;;;20.00;5.95;;;;;;;12.91;100.00;101297.38;5056745;28;20108;-70
2023/06/30 05:03:43;;;;;;;18.75;6.53;;;;;;;12.97;100.00;101296.91;5032481;28;20120;-70
2023/06/30 05:06:08;;;;;;;23.13;6.70;;;;;;;13.02;100.00;101283.09;5050552;28;20037;-67
2023/06/30 05:08:33;;;;;;;20.77;6.22;;;;;;;13.14;100.00;101292.94;5061972;28;20026;-64
2023/06/30 05:10:59;;;;;;;17.80;6.57;;;;;;;13.24;100.00;101293.94;5054250;28;20060;-66
2023/06/30 05:13:27;;;;;;;19.00;6.18;;;;;;;13.34;100.00;101296.81;5072016;28;20112;-66
2023/06/30 05:15:53;;;;;;;24.55;6.75;;;;;;;13.41;100.00;101284.56;5057387;28;20942;-65
2023/06/30 05:18:18;;;;;;;20.33;6.32;;;;;;;13.48;100.00;101289.47;5060908;28;20071;-64
2023/06/30 05:20:44;;;;;;;18.70;6.45;;;;;;;13.55;100.00;101286.16;5069427;28;20058;-74
2023/06/30 05:23:09;;;;;;;18.05;6.00;;;;;;;13.61;100.00;101296.47;5065100;28;20445;-74
2023/06/30 05:25:34;;;;;;;19.00;5.95;;;;;;;13.71;100.00;101295.75;5052963;28;20025;-74
2023/06/30 05:28:00;;;;;;;19.85;6.40;;;;;;;13.80;99.79;101289.63;5041530;28;20059;-72
2023/06/30 05:30:25;;;;;;;18.30;6.40;;;;;;;13.88;97.76;101302.50;5059262;28;20045;-80
2023/06/30 05:32:50;;;;;;;19.60;6.88;;;;;;;13.93;98.09;101292.19;5050279;28;20100;-80
2023/06/30 05:35:16;;;;;;;15.57;5.40;;;;;;;13.98;96.57;101292.69;5043617;28;20043;-79
2023/06/30 05:37:41;;;;;;;19.35;6.15;;;;;;;14.04;98.28;101291.31;5064907;28;20029;-80
2023/06/30 05:40:07;;;;;;;16.40;5.78;;;;;;;14.09;97.78;101289.97;5045759;28;20029;-80
2023/06/30 05:42:32;;;;;;;19.92;6.18;;;;;;;14.14;97.49;101292.28;5060990;28;20024;-80
2023/06/30 05:44:57;;;;;;;18.63;6.68;;;;;;;14.20;98.32;101302.59;5064100;28;20024;-80
2023/06/30 05:47:23;;;;;;;18.55;5.88;;;;;;;14.23;97.27;101296.97;5045030;28;20434;-80
2023/06/30 05:49:48;;;;;;;21.08;6.20;;;;;;;14.28;96.62;101308.25;5055301;28;20502;-80
2023/06/30 05:52:13;;;;;;;18.35;6.40;;;;;;;14.37;97.83;101297.69;5055017;28;20063;-80
2023/06/30 05:54:39;;;;;;;18.92;5.78;;;;;;;14.41;98.10;101300.00;5034307;28;20041;-80
2023/06/30 05:57:04;;;;;;;19.83;6.40;;;;;;;14.49;97.60;101304.75;5047878;28;20028;-80
2023/06/30 05:59:30;;;;;;;22.58;5.88;;;;;;;14.56;98.45;101305.97;5069741;28;20025;-80
2023/06/30 06:01:56;;;;;;;22.38;6.55;;;;;;;14.61;98.91;101303.78;5037434;28;20052;-80
2023/06/30 06:04:22;;;;;;;19.42;5.70;;;;;;;14.64;96.69;101300.84;5051364;28;20093;-75
2023/06/30 06:06:47;;;;;;;16.83;5.32;;;;;;;14.68;94.94;101299.59;5060071;28;20021;-77
2023/06/30 06:09:12;;;;;;;20.25;5.75;;;;;;;14.75;96.71;101290.97;5055684;28;20017;-76
2023/06/30 06:11:39;;;;;;;17.33;5.45;;;;;;;14.83;94.30;101294.75;5048585;28;20620;-75
2023/06/30 06:14:04;;;;;;;20.60;5.20;;;;;;;14.93;95.02;101291.25;5066826;28;20400;-75
2023/06/30 06:16:30;;;;;;;16.10;5.80;;;;;;;15.03;94.65;101293.03;5058254;28;20108;-76
2023/06/30 06:18:55;;;;;;;14.50;5.30;;;;;;;15.11;94.04;101291.50;5057775;28;20035;-75
2023/06/30 06:21:25;;;;;;;17.65;5.45;;;;;;;15.16;90.83;101305.53;5059479;28;20064;-75
2023/06/30 06:23:51;;;;;;;19.35;5.88;;;;;;;15.24;89.77;101296.75;5033002;28;20024;-76
2023/06/30 06:26:16;;;;;;;17.23;5.50;;;;;;;15.32;92.43;101305.06;5057500;28;20051;-75
2023/06/30 06:28:42;;;;;;;15.32;4.82;;;;;;;15.41;93.07;101315.09;5037539;28;20476;-76
2023/06/30 06:31:07;;;;;;;15.40;5.05;;;;;;;15.44;88.88;101311.28;5048544;28;20032;-77
2023/06/30 06:33:33;;;;;;;15.98;4.55;;;;;;;15.48;88.45;101305.44;5073993;28;20476;-76
2023/06/30 06:35:58;;;;;;;13.10;4.65;;;;;;;15.52;87.84;101308.75;5052331;28;20020;-77
2023/06/30 06:38:23;;;;;;;13.57;4.45;;;;;;;15.59;88.32;101309.06;5054724;28;20544;-80
2023/06/30 06:40:49;;;;;;;11.40;4.30;;;;;;;15.64;86.93;101313.09;5058301;28;20028;-80
2023/06/30 06:43:14;;;;;;;16.38;4.80;;;;;;;15.70;88.86;101309.84;5047314;28;20507;-80
2023/06/30 06:45:41;;;;;;;17.02;4.90;;;;;;;15.77;90.71;101315.59;5072196;28;20099;-80
2023/06/30 06:48:27;;;;;;;14.23;4.45;;;;;;;15.86;90.00;101314.81;5069010;28;20017;-80
2023/06/30 06:51:00;;;;;;;17.75;4.35;;;;;;;15.94;87.52;101316.84;5055263;28;20042;-80
2023/06/30 06:53:27;;;;;;;14.77;4.15;;;;;;;16.00;85.34;101307.31;5071752;28;20024;-80
2023/06/30 06:55:54;;;;;;;14.85;4.57;;;;;;;16.03;83.15;101305.19;5046394;28;20040;-80
2023/06/30 06:58:20;;;;;;;15.70;4.50;;;;;;;16.07;83.46;101301.19;5054390;28;20025;-81
2023/06/30 07:00:47;;;;;;;12.60;3.78;;;;;;;16.15;84.20;101297.81;5070695;28;20479;-80
2023/06/30 07:03:13;;;;;;;15.05;3.38;;;;;;;16.19;80.30;101304.69;5046030;28;20063;-80
2023/06/30 07:05:43;;;;;;;18.00;3.95;;;;;;;16.25;77.19;101311.38;5073561;28;20024;-81
2023/06/30 07:08:10;;;;;;;9.70;3.40;;;;;;;16.32;78.13;101308.97;5059208;28;20025;-80
2023/06/30 07:10:35;;;;;;;10.98;3.50;;;;;;;16.39;79.34;101310.16;5043297;28;20085;-80
2023/06/30 07:13:01;;;;;;;13.23;3.58;;;;;;;16.41;73.64;101309.00;5068944;28;20025;-80
2023/06/30 07:15:27;;;;;;;12.18;3.67;;;;;;;16.47;76.27;101312.16;5036599;28;20385;-80
2023/06/30 07:17:53;;;;;;;10.02;3.28;;;;;;;16.53;76.53;101317.88;5052973;28;20024;-80
2023/06/30 07:20:18;;;;;;;7.63;2.58;;;;;;;16.57;72.06;101319.34;5055091;28;20024;-80
2023/06/30 07:22:43;;;;;;;7.40;2.53;;;;;;;16.64;73.40;101318.75;5059005;28;20376;-81
2023/06/30 07:25:09;;;;;;;8.05;2.58;;;;;;;16.72;75.31;101313.47;5070051;28;20154;-80
2023/06/30 07:27:38;;;;;;;7.75;2.60;;;;;;;16.80;75.45;101319.06;5050607;28;20665;-80
2023/06/30 07:30:04;;;;;;;9.27;2.95;;;;;;;16.88;75.07;101323.78;5059746;28;20082;-80
2023/06/30 07:32:31;;;;;;;10.95;3.30;;;;;;;16.91;71.04;101326.22;5048169;28;20043;-80
2023/06/30 07:34:56;;;;;;;10.60;2.63;;;;;;;16.94;69.31;101315.97;5065520;28;20388;-80
2023/06/30 07:37:21;;;;;;;7.45;2.45;;;;;;;16.98;69.01;101319.22;5063491;28;20033;-80
2023/06/30 07:39:47;;;;;;;9.02;3.65;;;;;;;17.05;69.52;101333.09;5046327;28;20031;-80
2023/06/30 07:42:14;;;;;;;12.27;3.17;;;;;;;17.08;68.19;101319.22;5066420;28;20043;-80
2023/06/30 07:44:39;;;;;;;12.32;3.35;;;;;;;17.15;68.34;101319.53;5062402;28;20024;-81
2023/06/30 07:47:04;;;;;;;13.45;3.28;;;;;;;17.21;69.26;101327.09;5046688;28;20036;-81
2023/06/30 07:49:30;;;;;;;8.18;2.95;;;;;;;17.25;66.93;101314.94;5058097;28;20425;-80
2023/06/30 07:51:55;;;;;;;9.75;3.15;;;;;;;17.28;65.24;101320.09;5058544;28;20127;-80
2023/06/30 07:54:20;;;;;;;6.60;3.08;;;;;;;17.35;65.85;101313.06;5047298;28;20086;-80
2023/06/30 07:56:47;;;;;;;8.65;2.53;;;;;;;17.38;62.62;101318.22;5051916;28;20040;-80
2023/06/30 07:59:12;;;;;;;10.18;3.13;;;;;;;17.41;64.53;101311.59;5054506;28;20027;-80
2023/06/30 08:01:38;;;;;;;9.13;2.90;;;;;;;17.46;66.42;101315.59;5052101;28;20154;-80
2023/06/30 08:04:03;;;;;;;7.97;3.17;;;;;;;17.52;68.06;101322.31;5063648;28;20480;-80
2023/06/30 08:06:28;;;;;;;8.90;3.10;;;;;;;17.60;68.24;101321.56;5045965;28;20020;-80
2023/06/30 08:08:54;;;;;;;10.45;3.28;;;;;;;17.66;67.71;101318.28;5033090;28;20043;-79
2023/06/30 08:11:19;;;;;;;9.52;3.53;;;;;;;17.67;64.88;101311.81;5048130;28;20024;-80
2023/06/30 08:13:44;;;;;;;8.00;3.10;;;;;;;17.71;62.82;101318.69;5063377;28;20104;-79
2023/06/30 08:16:10;;;;;;;13.95;3.65;;;;;;;17.72;60.14;101320.41;5055508;28;20036;-80
2023/06/30 08:18:35;;;;;;;7.50;2.95;;;;;;;17.73;60.33;101316.69;5062235;28;20099;-79
2023/06/30 08:21:02;;;;;;;10.07;3.25;;;;;;;17.79;62.14;101317.97;5052946;28;20056;-80
2023/06/30 08:23:27;;;;;;;8.20;3.30;;;;;;;17.84;63.37;101315.66;5041374;28;20030;-80
2023/06/30 08:25:54;;;;;;;10.18;3.33;;;;;;;17.90;62.36;101311.50;5042501;28;20139;-79
2023/06/30 08:28:20;;;;;;;12.05;3.42;;;;;;;17.97;64.83;101307.19;5018025;28;20033;-79
2023/06/30 08:30:46;;;;;;;9.52;3.10;;;;;;;18.02;62.66;101307.56;5036086;28;20029;-81
2023/06/30 08:33:11;;;;;;;9.50;3.20;;;;;;;18.05;62.71;101310.00;5046843;28;20024;-78
2023/06/30 08:35:36;;;;;;;13.07;3.38;;;;;;;18.11;63.44;101312.13;5037997;28;20105;-80
2023/06/30 08:38:02;;;;;;;10.63;3.13;;;;;;;18.13;61.72;101312.00;5048575;28;20096;-77
2023/06/30 08:40:31;;;;;;;7.70;2.70;;;;;;;18.20;61.32;101309.50;5040465;28;20091;-80
2023/06/30 08:43:05;;;;;;;15.75;3.65;;;;;;;18.27;61.94;101300.59;5039318;28;20120;-80
2023/06/30 08:45:30;;;;;;;11.10;3.28;;;;;;;18.32;60.44;101298.25;5039846;28;20017;-80
2023/06/30 08:48:01;;;;;;;11.07;3.20;;;;;;;18.41;61.89;101292.94;5044773;28;20073;-81
2023/06/30 08:50:27;;;;;;;8.50;2.85;;;;;;;18.52;62.30;101289.97;5051316;28;20073;-79
2023/06/30 08:52:54;;;;;;;11.73;3.55;;;;;;;18.61;59.84;101290.91;5066986;28;20025;-82
2023/06/30 08:55:19;;;;;;;16.83;3.40;;;;;;;18.66;58.58;101294.03;5071576;28;20067;-82
2023/06/30 08:57:45;;;;;;;8.88;3.25;;;;;;;18.69;59.00;101296.44;5045573;28;20108;-82
2023/06/30 09:00:11;;;;;;;10.05;3.17;;;;;;;18.73;58.70;101286.97;5058702;28;20016;-81
2023/06/30 09:02:38;;;;;;;12.07;3.25;;;;;;;18.74;57.72;101285.09;5047396;28;20048;-80
2023/06/30 09:05:04;;;;;;;9.93;2.78;;;;;;;18.80;58.06;101287.19;5051490;28;20036;-78
2023/06/30 09:07:34;;;;;;;9.75;3.25;;;;;;;18.87;58.51;101271.97;5040472;28;20029;-78
2023/06/30 09:10:02;;;;;;;11.25;3.28;;;;;;;18.90;57.43;101287.13;5038841;28;20104;-80
2023/06/30 09:12:28;;;;;;;10.05;3.20;;;;;;;18.89;55.32;101293.59;5037756;28;20029;-78
2023/06/30 09:14:58;;;;;;;9.52;3.03;;;;;;;18.96;58.67;101275.59;5035864;28;20071;-80
2023/06/30 09:17:25;;;;;;;10.90;3.50;;;;;;;18.95;56.80;101282.94;5037317;28;20106;-78
2023/06/30 09:19:50;;;;;;;12.93;3.38;;;;;;;18.96;56.04;101283.78;5038253;28;20505;-80
2023/06/30 09:22:16;;;;;;;7.68;3.17;;;;;;;18.99;55.64;101275.28;5050909;28;20028;-78
2023/06/30 09:24:42;;;;;;;13.15;3.00;;;;;;;19.04;56.69;101271.09;5038168;28;20033;-77
2023/06/30 09:27:07;;;;;;;12.75;3.15;;;;;;;19.07;54.80;101278.09;5048426;28;20055;-84
2023/06/30 09:29:36;;;;;;;11.60;3.00;;;;;;;19.10;56.17;101277.78;5051425;28;20427;-81
2023/06/30 09:32:02;;;;;;;5.57;2.65;;;;;;;19.14;56.23;101273.72;5048860;28;20029;-80
2023/06/30 09:34:27;;;;;;;8.85;3.05;;;;;;;19.18;55.66;101275.13;5042616;28;20408;-81
2023/06/30 09:36:54;;;;;;;9.15;3.17;;;;;;;19.22;54.62;101270.19;5041083;28;20040;-79
2023/06/30 09:39:20;;;;;;;10.23;3.08;;;;;;;19.32;58.07;101275.56;5039811;28;20043;-80
2023/06/30 09:41:47;;;;;;;11.55;3.03;;;;;;;19.39;57.25;101268.47;5036969;28;20083;-79
2023/06/30 09:44:14;;;;;;;9.32;2.72;;;;;;;19.47;58.99;101263.03;5038761;28;20465;-83
2023/06/30 09:46:51;;;;;;;8.82;2.92;;;;;;;19.56;56.93;101264.81;5048421;28;20033;-81
2023/06/30 09:49:23;;;;;;;10.15;3.35;;;;;;;19.56;53.46;101266.66;5038693;28;20033;-81
2023/06/30 09:51:49;;;;;;;8.27;3.00;;;;;;;19.54;52.37;101271.44;5043690;28;20047;-81
2023/06/30 09:54:17;;;;;;;9.82;3.20;;;;;;;19.48;52.08;101264.75;5048578;28;20424;-83
2023/06/30 09:56:42;;;;;;;13.60;2.72;;;;;;;19.53;53.72;101261.53;5032445;28;20033;-81
2023/06/30 09:59:07;;;;;;;12.23;3.10;;;;;;;19.52;52.13;101263.44;5043849;28;20039;-82
2023/06/30 10:01:34;;;;;;;11.10;3.35;;;;;;;19.58;52.95;101270.09;5055761;28;20025;-82
2023/06/30 10:03:59;;;;;;;9.40;3.00;;;;;;;19.60;52.72;101269.94;5065705;28;20029;-83
2023/06/30 10:06:27;;;;;;;8.20;3.00;;;;;;;19.61;51.36;101263.47;5048724;28;20215;-85
2023/06/30 10:08:56;;;;;;;9.25;3.05;;;;;;;19.72;51.57;101260.44;5056899;28;20024;-85
2023/06/30 10:11:22;;;;;;;11.18;3.13;;;;;;;19.80;53.70;101263.28;5039080;28;20408;-81
2023/06/30 10:13:50;;;;;;;8.77;2.83;;;;;;;19.85;52.42;101260.03;5056163;28;20033;-81
2023/06/30 10:16:18;;;;;;;10.60;2.80;;;;;;;19.88;52.02;101257.00;5041507;28;20075;-80
2023/06/30 10:18:46;;;;;;;8.33;2.67;;;;;;;19.95;53.40;101249.00;5047512;28;20389;-79
2023/06/30 10:21:12;;;;;;;15.00;3.05;;;;;;;19.97;53.47;101252.41;5051117;28;20033;-80
2023/06/30 10:23:39;;;;;;;11.52;3.30;;;;;;;19.99;52.22;101253.13;5040460;28;20094;-81
2023/06/30 10:26:06;;;;;;;10.02;3.22;;;;;;;20.01;52.00;101248.34;5053920;28;20472;-81
2023/06/30 10:28:37;;;;;;;16.67;3.45;;;;;;;20.02;53.19;101259.09;5067051;28;20025;-78
2023/06/30 10:31:03;;;;;;;9.50;2.95;;;;;;;19.94;49.96;101250.03;5042421;28;20029;-82
2023/06/30 10:33:28;;;;;;;7.65;2.95;;;;;;;19.90;53.90;101242.16;5060549;28;20439;-80
2023/06/30 10:35:55;;;;;;;13.90;3.17;;;;;;;19.86;49.53;101245.41;5074157;28;20028;-79
2023/06/30 10:38:21;;;;;;;10.98;3.13;;;;;;;19.93;49.08;101248.31;5066652;28;20396;-82
2023/06/30 10:40:47;;;;;;;8.13;3.05;;;;;;;19.91;49.11;101243.00;5049731;28;20016;-80
2023/06/30 10:43:13;;;;;;;7.13;2.88;;;;;;;19.99;50.08;101234.03;5043316;28;20039;-81
2023/06/30 10:46:05;;;;;;;13.38;3.40;;;;;;;20.03;50.16;101240.84;5054554;28;20021;-80
2023/06/30 10:48:31;;;;;;;7.65;2.85;;;;;;;20.06;51.70;101240.53;5049665;28;20091;-82
2023/06/30 10:50:56;;;;;;;8.88;2.88;;;;;;;20.03;50.50;101229.94;5065846;28;20370;-81
2023/06/30 10:53:22;;;;;;;10.80;2.92;;;;;;;20.07;51.28;101231.31;5056033;28;20036;-82
2023/06/30 10:55:47;;;;;;;7.40;2.75;;;;;;;20.18;51.41;101231.00;5049521;28;20108;-80
2023/06/30 10:58:24;;;;;;;9.40;3.08;;;;;;;20.23;51.13;101222.31;5066424;28;20111;-82
2023/06/30 11:01:06;;;;;;;6.32;2.70;;;;;;;20.30;53.13;101219.78;5051244;28;20587;-83
2023/06/30 11:03:56;;;;;;;7.95;3.03;;;;;;;20.39;52.98;101207.84;5031535;28;20045;-81
2023/06/30 11:06:22;;;;;;;8.70;2.83;;;;;;;20.46;51.23;101221.69;5030770;28;20033;-81
2023/06/30 11:09:01;;;;;;;7.70;2.70;;;;;;;20.44;51.38;101210.94;5030889;28;20029;-81
2023/06/30 11:11:27;;;;;;;7.35;2.40;;;;;;;20.43;52.69;101217.41;5046376;28;20037;-82